KDPG/DPG METAR and TAF weather

Enter ICAO airport designator
Station Type Date Time Source
KDPG METAR 2020/01/23 22:55 UTC NOAA

KDPG 232255Z 31003KT 50SM SCT065 BKN180 BKN200 11/M01 A3025 RMK SLP232 T01111006


Station Type Date Time Source
KDPG Decoded METAR 2020/01/23 22:55 UTC NOAA

Dugway Proving Grounds, UT, United States (KDPG) 40-10N 112-56W 1325M
Jan 23, 2020 - 05:55 PM EST / 2020.01.23 2255 UTC
Wind: from the NW (310 degrees) at 3 MPH (3 KT):0
Visibility: 50 mile(s):0
Sky conditions: mostly cloudy
Temperature: 52.0 F (11.1 C)
Dew Point: 30.9 F (-0.6 C)
Relative Humidity: 44%
Pressure (altimeter): 30.25 in. Hg (1024 hPa)
ob: KDPG 232255Z 31003KT 50SM SCT065 BKN180 BKN200 11/M01 A3025 RMK SLP232 T01111006
cycle: 23

Station Type Date Time Source
KDPG TAF UTC NOAA

Error!

Example: see airport list